createdAt,value
2022-11-08T04:01:54.814Z,8.83
2022-11-08T04:04:22.266Z,12.30
2022-11-08T04:06:49.429Z,9.00
2022-11-08T04:09:21.351Z,8.97
2022-11-08T04:12:07.458Z,8.90
2022-11-08T04:14:53.113Z,10.17
2022-11-08T04:17:40.322Z,4.83
2022-11-08T04:20:27.648Z,5.93
2022-11-08T04:22:54.761Z,5.63
2022-11-08T04:25:21.964Z,5.53
2022-11-08T04:27:49.181Z,5.20
2022-11-08T04:30:16.421Z,5.77
2022-11-08T04:32:43.564Z,5.73
2022-11-08T04:35:10.762Z,5.23
2022-11-08T04:37:37.961Z,5.47
2022-11-08T04:40:05.760Z,5.87
2022-11-08T04:42:32.908Z,6.07
2022-11-08T04:45:00.032Z,5.63
2022-11-08T04:47:28.332Z,6.37
2022-11-08T04:49:55.483Z,5.73
2022-11-08T04:52:22.631Z,5.60
2022-11-08T04:54:49.745Z,5.63
2022-11-08T04:57:16.895Z,5.47
2022-11-08T04:59:44.024Z,13.00
2022-11-08T05:02:11.339Z,10.27
2022-11-08T05:04:39.054Z,9.10
2022-11-08T05:07:06.187Z,5.07
2022-11-08T05:09:33.309Z,4.77
2022-11-08T05:12:00.463Z,4.90
2022-11-08T05:14:27.692Z,4.70
2022-11-08T05:16:54.910Z,5.67
2022-11-08T05:19:40.744Z,5.00
2022-11-08T05:22:28.218Z,4.73
2022-11-08T05:24:55.399Z,4.77
2022-11-08T05:27:22.555Z,4.97
2022-11-08T05:29:49.657Z,4.40
2022-11-08T05:32:16.792Z,4.73
2022-11-08T05:34:43.979Z,5.50
2022-11-08T05:37:11.498Z,5.07
2022-11-08T05:39:38.699Z,5.63
2022-11-08T05:42:05.968Z,6.00
2022-11-08T05:44:33.075Z,7.03
2022-11-08T05:47:00.262Z,12.03
2022-11-08T05:49:27.411Z,8.70
2022-11-08T05:51:54.496Z,8.70
2022-11-08T05:54:21.617Z,7.57
2022-11-08T05:56:48.752Z,7.17
2022-11-08T05:59:15.891Z,8.23
2022-11-08T06:01:43.363Z,6.20
2022-11-08T06:04:10.675Z,5.60
2022-11-08T06:06:37.804Z,6.67
2022-11-08T06:09:04.994Z,6.57
2022-11-08T06:11:32.152Z,7.80
2022-11-08T06:13:59.320Z,9.50
2022-11-08T06:16:26.705Z,9.63
2022-11-08T06:18:53.907Z,7.97
2022-11-08T06:21:21.907Z,8.00
2022-11-08T06:23:53.502Z,11.77
2022-11-08T06:26:21.990Z,10.73
2022-11-08T06:28:49.151Z,8.30
2022-11-08T06:31:16.288Z,7.47
2022-11-08T06:33:43.401Z,7.23
2022-11-08T06:36:10.576Z,12.03
2022-11-08T06:38:37.785Z,10.70
2022-11-08T06:41:05.032Z,9.40
2022-11-08T06:43:32.332Z,9.80
2022-11-08T06:46:02.721Z,12.97
2022-11-08T06:48:35.420Z,10.57
2022-11-08T06:51:04.529Z,11.40
2022-11-08T06:53:32.099Z,10.80
2022-11-08T06:56:00.545Z,10.93
2022-11-08T06:58:27.973Z,8.40
2022-11-08T07:00:55.123Z,9.20
2022-11-08T07:03:22.289Z,9.00
2022-11-08T07:05:49.428Z,8.93
2022-11-08T07:08:23.083Z,8.83
2022-11-08T07:10:51.351Z,9.50
2022-11-08T07:13:19.097Z,11.63
2022-11-08T07:15:49.987Z,9.80
2022-11-08T07:18:19.310Z,9.83
2022-11-08T07:20:47.360Z,8.80
2022-11-08T07:23:14.594Z,10.27
2022-11-08T07:25:42.191Z,7.50
2022-11-08T07:28:15.692Z,8.77
2022-11-08T07:30:43.030Z,13.20
2022-11-08T07:33:10.243Z,9.93
2022-11-08T07:35:37.506Z,7.27
2022-11-08T07:38:04.725Z,11.53
2022-11-08T07:40:31.890Z,10.87
2022-11-08T07:43:15.242Z,10.73
2022-11-08T07:45:42.900Z,10.57
2022-11-08T07:48:13.233Z,15.40
2022-11-08T07:50:42.613Z,9.40
2022-11-08T07:53:10.670Z,8.70
2022-11-08T07:55:39.216Z,6.80
2022-11-08T07:58:07.372Z,12.23
2022-11-08T08:00:36.482Z,6.27
2022-11-08T08:03:05.354Z,7.93
2022-11-08T08:05:44.143Z,8.43
2022-11-08T08:08:13.058Z,10.73
2022-11-08T08:10:41.140Z,8.47
2022-11-08T08:13:08.806Z,5.63
2022-11-08T08:15:36.321Z,10.17
2022-11-08T08:18:05.501Z,5.63
2022-11-08T08:20:33.316Z,13.00
2022-11-08T08:23:01.200Z,6.97
2022-11-08T08:25:30.875Z,5.80
2022-11-08T08:28:00.740Z,7.07
2022-11-08T08:30:29.870Z,6.87
2022-11-08T08:33:38.701Z,6.43
2022-11-08T08:35:57.444Z,5.77
2022-11-08T08:38:24.595Z,5.53
2022-11-08T08:40:51.901Z,4.70
2022-11-08T08:43:20.462Z,4.93
2022-11-08T08:45:48.807Z,4.43
2022-11-08T08:48:16.390Z,4.17
2022-11-08T08:50:43.512Z,4.73
2022-11-08T08:53:11.087Z,4.00
2022-11-08T08:55:40.397Z,4.13
2022-11-08T08:58:07.623Z,5.67
2022-11-08T09:03:22.492Z,4.60
2022-11-08T09:05:49.707Z,7.63
2022-11-08T09:08:16.877Z,4.37
2022-11-08T09:10:44.153Z,3.90
2022-11-08T09:13:11.318Z,4.13
2022-11-08T09:15:39.400Z,4.25
2022-11-08T09:18:06.930Z,5.80
2022-11-08T09:20:34.196Z,4.68
2022-11-08T09:23:03.049Z,7.40
2022-11-08T09:25:30.252Z,5.28
2022-11-08T09:27:57.455Z,5.13
2022-11-08T09:30:24.828Z,5.83
2022-11-08T09:33:01.996Z,9.07
2022-11-08T09:35:30.404Z,6.20
2022-11-08T09:37:58.511Z,6.70
2022-11-08T09:40:48.844Z,7.60
2022-11-08T09:43:36.791Z,6.05
2022-11-08T09:46:04.052Z,5.87
2022-11-08T09:48:36.984Z,3.95
2022-11-08T09:51:15.392Z,7.97
2022-11-08T09:53:58.473Z,3.92
2022-11-08T09:56:37.840Z,3.95
2022-11-08T09:59:42.834Z,4.15
2022-11-08T10:02:17.749Z,7.50
2022-11-08T10:04:51.917Z,7.70
2022-11-08T10:07:37.087Z,6.15
2022-11-08T10:10:18.985Z,5.93
2022-11-08T10:13:04.087Z,7.57
2022-11-08T10:16:10.429Z,8.10
2022-11-08T10:19:08.272Z,10.27
2022-11-08T10:21:52.424Z,9.23
2022-11-08T10:24:36.355Z,6.35
2022-11-08T10:27:13.215Z,5.50
2022-11-08T10:29:44.041Z,4.22
2022-11-08T10:32:13.904Z,4.22
2022-11-08T10:35:08.716Z,3.45
2022-11-08T10:37:36.835Z,3.20
2022-11-08T10:40:19.379Z,2.88
2022-11-08T10:42:53.160Z,3.08
2022-11-08T10:45:20.302Z,3.00
2022-11-08T10:47:47.689Z,4.68
2022-11-08T10:50:18.598Z,2.50
2022-11-08T10:52:55.148Z,2.72
2022-11-08T10:55:26.862Z,2.80
2022-11-08T10:57:54.028Z,2.25
2022-11-08T11:00:21.290Z,2.78
2022-11-08T11:03:23.216Z,2.40
2022-11-08T11:06:25.548Z,2.67
2022-11-08T11:08:58.425Z,2.40
2022-11-08T11:11:35.774Z,2.03
2022-11-08T11:14:18.140Z,2.40
2022-11-08T11:16:56.801Z,2.40
2022-11-08T11:19:26.114Z,3.10
2022-11-08T11:22:02.333Z,2.58
2022-11-08T11:24:29.917Z,2.47
2022-11-08T11:26:57.013Z,2.47
2022-11-08T11:29:34.808Z,2.67
2022-11-08T11:32:21.715Z,2.60
2022-11-08T11:34:58.314Z,2.90
2022-11-08T11:37:25.464Z,3.10
2022-11-08T11:40:45.479Z,2.90
2022-11-08T11:43:29.681Z,3.22
2022-11-08T11:46:11.729Z,3.20
2022-11-08T11:48:58.204Z,3.10
2022-11-08T11:51:30.025Z,3.33
2022-11-08T11:53:58.420Z,2.50
2022-11-08T11:56:31.087Z,3.58
2022-11-08T11:59:16.904Z,3.58
2022-11-08T12:02:07.152Z,3.28
2022-11-08T12:05:14.174Z,3.35
2022-11-08T12:07:58.160Z,3.17
2022-11-08T12:11:02.060Z,3.33
2022-11-08T12:13:54.294Z,2.95
2022-11-08T12:16:55.752Z,2.60
2022-11-08T12:19:33.428Z,2.80
2022-11-08T12:22:32.989Z,2.80
2022-11-08T12:25:36.898Z,3.15
2022-11-08T12:28:28.056Z,2.80
2022-11-08T12:31:24.115Z,2.97
2022-11-08T12:33:57.737Z,2.20
2022-11-08T12:36:44.043Z,2.22
2022-11-08T12:39:26.020Z,2.30
2022-11-08T12:42:04.773Z,2.40
2022-11-08T12:45:04.420Z,2.63
2022-11-08T12:48:01.353Z,2.60
2022-11-08T12:50:36.084Z,2.83
2022-11-08T12:53:21.343Z,2.90
2022-11-08T12:55:50.832Z,4.55
2022-11-08T12:58:34.577Z,2.92
2022-11-08T13:01:16.806Z,4.43
2022-11-08T13:03:47.059Z,3.25
2022-11-08T13:06:44.327Z,3.00
2022-11-08T13:09:17.132Z,2.65
2022-11-08T13:11:55.667Z,3.25
2022-11-08T13:14:24.055Z,2.75
2022-11-08T13:17:26.217Z,2.72
2022-11-08T13:19:58.517Z,4.25
2022-11-08T13:22:29.261Z,2.50
2022-11-08T13:25:01.460Z,2.67
2022-11-08T13:27:35.790Z,2.10
2022-11-08T13:30:11.143Z,2.00
2022-11-08T13:33:09.777Z,2.10
2022-11-08T13:35:57.497Z,2.25
2022-11-08T13:38:58.295Z,3.50
2022-11-08T13:41:26.299Z,2.90
2022-11-08T13:43:55.068Z,2.28
2022-11-08T13:46:22.915Z,2.17
2022-11-08T13:49:01.949Z,1.98
2022-11-08T13:51:30.296Z,2.03
2022-11-08T13:54:26.149Z,1.65
2022-11-08T13:56:56.934Z,4.60
2022-11-08T13:59:33.232Z,2.10
2022-11-08T14:02:25.241Z,2.00
2022-11-08T14:04:53.915Z,2.47
2022-11-08T14:07:26.995Z,1.75
2022-11-08T14:10:35.450Z,1.80
2022-11-08T14:13:21.896Z,1.70
2022-11-08T14:15:57.488Z,2.72
2022-11-08T14:18:29.596Z,1.73
2022-11-08T14:20:57.306Z,1.83
2022-11-08T14:23:33.931Z,3.03
2022-11-08T14:26:01.053Z,2.40
2022-11-08T14:28:31.226Z,2.10
2022-11-08T14:31:00.762Z,1.98
2022-11-08T14:33:30.030Z,2.10
2022-11-08T14:36:02.733Z,3.72
2022-11-08T14:38:33.297Z,1.60
2022-11-08T14:41:06.495Z,2.03
2022-11-08T14:43:46.709Z,1.90
2022-11-08T14:46:30.698Z,1.88
2022-11-08T14:48:58.480Z,2.10
2022-11-08T14:51:26.507Z,1.92
2022-11-08T14:53:55.267Z,1.80
2022-11-08T14:56:25.178Z,2.25
2022-11-08T14:58:54.914Z,3.20
2022-11-08T15:01:27.111Z,3.33
2022-11-08T15:03:57.653Z,3.72
2022-11-08T15:06:39.047Z,4.95
2022-11-08T15:09:07.290Z,3.13
2022-11-08T15:11:40.879Z,2.75
2022-11-08T15:14:11.097Z,2.40
2022-11-08T15:16:54.583Z,3.47
2022-11-08T15:19:36.835Z,2.33
2022-11-08T15:22:25.616Z,2.78
2022-11-08T15:25:14.380Z,2.78
2022-11-08T15:27:54.844Z,3.65
2022-11-08T15:30:30.848Z,7.35
2022-11-08T15:32:58.251Z,7.72
2022-11-08T15:35:47.086Z,4.63
2022-11-08T15:38:20.997Z,8.20
2022-11-08T15:40:57.898Z,6.20
2022-11-08T15:43:31.243Z,5.80
2022-11-08T15:46:00.350Z,9.35
2022-11-08T15:48:28.139Z,4.90
2022-11-08T15:50:59.186Z,4.18
2022-11-08T15:53:27.742Z,3.63
2022-11-08T15:56:03.022Z,6.22
2022-11-08T15:58:32.617Z,3.10
2022-11-08T16:01:02.211Z,3.42
2022-11-08T16:03:29.869Z,3.83
2022-11-08T16:05:57.667Z,4.35
2022-11-08T16:08:25.348Z,8.63
2022-11-08T16:10:57.463Z,3.67
2022-11-08T16:13:28.025Z,4.38
2022-11-08T16:15:56.297Z,5.60
2022-11-08T16:18:23.747Z,4.85
2022-11-08T16:20:51.199Z,26.02
2022-11-08T16:23:18.777Z,36.40
2022-11-08T16:25:50.009Z,24.25
2022-11-08T16:28:27.506Z,22.60
2022-11-08T16:30:54.735Z,13.45
2022-11-08T16:33:30.719Z,8.20
2022-11-08T16:36:00.522Z,9.57
2022-11-08T16:38:35.586Z,5.80
2022-11-08T16:41:04.015Z,7.63
2022-11-08T16:43:31.679Z,5.03
2022-11-08T16:46:06.319Z,7.38
2022-11-08T16:48:36.549Z,5.45
2022-11-08T16:51:06.324Z,5.90
2022-11-08T16:53:35.338Z,5.68
2022-11-08T16:56:02.586Z,6.70
2022-11-08T16:58:29.713Z,7.38
2022-11-08T17:00:57.671Z,5.72
2022-11-08T17:03:26.022Z,6.07
2022-11-08T17:05:54.147Z,4.72
2022-11-08T17:08:22.027Z,4.70
2022-11-08T17:10:49.287Z,7.28
2022-11-08T17:13:18.378Z,5.53
2022-11-08T17:15:46.152Z,5.95
2022-11-08T17:18:15.994Z,5.75
2022-11-08T17:20:43.905Z,5.47
2022-11-08T17:23:11.924Z,5.38
2022-11-08T17:25:40.359Z,5.30
2022-11-08T17:28:08.937Z,7.18
2022-11-08T17:30:37.173Z,5.82
2022-11-08T17:33:04.553Z,6.90
2022-11-08T17:35:31.768Z,6.10
2022-11-08T17:37:59.019Z,8.10
2022-11-08T17:40:26.448Z,7.72
2022-11-08T17:42:53.830Z,11.13
2022-11-08T17:45:21.071Z,7.22
2022-11-08T17:47:48.251Z,6.78
2022-11-08T17:50:15.734Z,8.07
2022-11-08T17:52:42.926Z,9.05
2022-11-08T17:55:11.032Z,10.95
2022-11-08T17:57:38.306Z,9.75
2022-11-08T18:00:10.684Z,13.63
2022-11-08T18:02:38.822Z,15.77
2022-11-08T18:05:06.410Z,16.58
2022-11-08T18:07:33.645Z,15.73
2022-11-08T18:10:02.716Z,15.90
2022-11-08T18:12:32.244Z,14.60
2022-11-08T18:14:59.595Z,13.90
2022-11-08T18:17:27.377Z,13.50
2022-11-08T18:19:54.705Z,13.82
2022-11-08T18:22:22.180Z,11.50
2022-11-08T18:24:50.188Z,10.43
2022-11-08T18:27:17.916Z,11.68
2022-11-08T18:29:45.178Z,13.63
2022-11-08T18:32:12.409Z,11.48
2022-11-08T18:34:39.628Z,14.43
2022-11-08T18:37:06.841Z,11.40
2022-11-08T18:39:34.121Z,10.90
2022-11-08T18:42:01.484Z,13.80
2022-11-08T18:44:28.685Z,10.20
2022-11-08T18:46:55.995Z,9.55
2022-11-08T18:49:23.283Z,10.18
2022-11-08T18:51:52.176Z,13.10
2022-11-08T18:54:20.562Z,12.40
2022-11-08T18:56:47.898Z,10.73
2022-11-08T18:59:15.356Z,9.23
2022-11-08T19:01:42.765Z,9.13
2022-11-08T19:04:10.284Z,8.90
2022-11-08T19:06:37.561Z,10.00
2022-11-08T19:09:07.732Z,11.43
2022-11-08T19:11:36.450Z,9.87
2022-11-08T19:14:03.857Z,10.50
2022-11-08T19:16:31.344Z,10.18
2022-11-08T19:18:58.657Z,13.30
2022-11-08T19:21:27.616Z,14.50
2022-11-08T19:23:59.317Z,12.98
2022-11-08T19:26:29.104Z,11.07
2022-11-08T19:28:57.401Z,11.93
2022-11-08T19:31:25.609Z,13.43
2022-11-08T19:33:53.988Z,13.30
2022-11-08T19:36:26.378Z,12.33
2022-11-08T19:38:54.843Z,13.40
2022-11-08T19:41:24.354Z,12.40
2022-11-08T19:43:51.980Z,14.23
2022-11-08T19:46:21.827Z,12.07
2022-11-08T19:48:50.782Z,11.33
2022-11-08T19:51:21.710Z,11.73
2022-11-08T19:53:51.200Z,13.40
2022-11-08T19:56:19.709Z,11.83
2022-11-08T19:58:47.273Z,9.83
2022-11-08T20:01:20.487Z,11.40
2022-11-08T20:03:49.318Z,14.67
2022-11-08T20:06:19.117Z,12.83
2022-11-08T20:08:51.209Z,12.00
2022-11-08T20:11:24.815Z,15.40
2022-11-08T20:13:52.482Z,13.90
2022-11-08T20:16:26.662Z,13.07
2022-11-08T20:18:55.866Z,12.90
2022-11-08T20:21:23.208Z,12.10
2022-11-08T20:23:50.383Z,11.50
2022-11-08T20:26:23.044Z,11.37
2022-11-08T20:28:56.356Z,11.27
2022-11-08T20:31:25.376Z,11.23
2022-11-08T20:33:54.009Z,13.53
2022-11-08T20:36:23.505Z,13.77
2022-11-08T20:38:56.175Z,10.47
2022-11-08T20:41:23.731Z,12.30
2022-11-08T20:43:50.929Z,9.83
2022-11-08T20:46:20.089Z,11.10
2022-11-08T20:48:51.807Z,12.73
2022-11-08T20:51:20.773Z,11.30
2022-11-08T20:53:48.547Z,11.63
2022-11-08T20:56:20.516Z,9.57
2022-11-08T20:58:50.016Z,11.33
2022-11-08T21:01:22.429Z,11.60
2022-11-08T21:03:51.146Z,11.10
2022-11-08T21:06:24.274Z,12.33
2022-11-08T21:09:04.852Z,10.60
2022-11-08T21:11:35.627Z,11.17
2022-11-08T21:14:04.417Z,9.87
2022-11-08T21:16:42.427Z,10.27
2022-11-08T21:19:17.815Z,10.53
2022-11-08T21:21:46.448Z,11.70
2022-11-08T21:24:13.949Z,10.77
2022-11-08T21:26:41.096Z,12.63
2022-11-08T21:29:08.286Z,11.27
2022-11-08T21:31:36.119Z,17.33
2022-11-08T21:34:03.243Z,13.83
2022-11-08T21:36:30.429Z,13.63
2022-11-08T21:38:57.613Z,10.20
2022-11-08T21:41:24.826Z,11.70
2022-11-08T21:43:51.954Z,10.07
2022-11-08T21:46:24.722Z,11.70
2022-11-08T21:48:57.584Z,11.33
2022-11-08T21:51:26.294Z,12.63
2022-11-08T21:53:55.914Z,15.40
2022-11-08T21:56:25.049Z,10.27
2022-11-08T21:58:52.995Z,9.60
